createdAt,value
2023-03-29T03:59:26.676Z,3.10
2023-03-29T04:02:31.706Z,3.22
2023-03-29T04:05:39.846Z,3.35
2023-03-29T04:08:43.081Z,3.33
2023-03-29T04:11:46.921Z,3.05
2023-03-29T04:14:50.020Z,3.28
2023-03-29T04:17:52.982Z,3.22
2023-03-29T04:20:56.230Z,3.28
2023-03-29T04:23:59.985Z,3.50
2023-03-29T04:27:03.151Z,3.20
2023-03-29T04:30:07.337Z,3.70
2023-03-29T04:33:21.273Z,3.05
2023-03-29T04:36:29.662Z,3.53
2023-03-29T04:39:34.355Z,3.65
2023-03-29T04:42:38.990Z,3.35
2023-03-29T04:45:41.841Z,3.58
2023-03-29T04:48:45.156Z,4.53
2023-03-29T04:51:48.523Z,5.05
2023-03-29T04:54:51.529Z,3.25
2023-03-29T04:57:55.557Z,4.05
2023-03-29T05:00:59.158Z,4.37
2023-03-29T05:04:05.122Z,4.10
2023-03-29T05:07:08.629Z,3.70
2023-03-29T05:10:11.764Z,4.10
2023-03-29T05:13:14.805Z,5.15
2023-03-29T05:16:17.800Z,4.87
2023-03-29T05:19:23.852Z,4.45
2023-03-29T05:22:27.077Z,5.28
2023-03-29T05:25:30.336Z,5.18
2023-03-29T05:28:33.882Z,4.43
2023-03-29T05:31:37.967Z,3.00
2023-03-29T05:34:41.424Z,4.00
2023-03-29T05:37:44.344Z,3.85
2023-03-29T05:40:47.297Z,4.07
2023-03-29T05:43:51.283Z,4.97
2023-03-29T05:46:54.711Z,4.47
2023-03-29T05:49:57.673Z,3.22
2023-03-29T05:53:00.764Z,3.28
2023-03-29T05:56:04.132Z,2.97
2023-03-29T05:59:08.474Z,2.50
2023-03-29T06:02:12.487Z,2.80
2023-03-29T06:05:16.982Z,3.25
2023-03-29T06:08:22.334Z,3.10
2023-03-29T06:11:26.403Z,2.80
2023-03-29T06:14:31.430Z,2.60
2023-03-29T06:17:36.598Z,2.75
2023-03-29T06:20:39.551Z,2.90
2023-03-29T06:23:42.740Z,3.55
2023-03-29T06:26:46.526Z,2.70
2023-03-29T06:29:50.095Z,3.30
2023-03-29T06:32:52.791Z,2.87
2023-03-29T06:35:57.439Z,3.00
2023-03-29T06:39:01.024Z,2.83
2023-03-29T06:42:20.111Z,2.65
2023-03-29T06:45:27.496Z,2.60
2023-03-29T06:48:34.290Z,2.97
2023-03-29T06:51:37.519Z,3.37
2023-03-29T06:54:40.942Z,2.62
2023-03-29T06:57:44.136Z,2.70
2023-03-29T07:00:51.710Z,2.90
2023-03-29T07:03:57.845Z,2.75
2023-03-29T07:07:01.929Z,3.28
2023-03-29T07:10:05.597Z,2.90
2023-03-29T07:13:13.382Z,3.30
2023-03-29T07:16:16.410Z,3.80
2023-03-29T07:19:22.720Z,3.30
2023-03-29T07:22:27.244Z,3.78
2023-03-29T07:25:31.223Z,3.53
2023-03-29T07:28:34.827Z,3.83
2023-03-29T07:31:40.857Z,3.40
2023-03-29T07:34:44.771Z,3.55
2023-03-29T07:37:48.783Z,3.00
2023-03-29T07:40:53.613Z,2.70
2023-03-29T07:44:04.941Z,2.65
2023-03-29T07:47:08.787Z,2.53
2023-03-29T07:50:14.559Z,2.75
2023-03-29T07:53:17.366Z,2.67
2023-03-29T07:56:20.624Z,2.47
2023-03-29T07:59:23.670Z,2.83
2023-03-29T08:02:27.309Z,2.83
2023-03-29T08:05:40.586Z,2.47
2023-03-29T08:08:44.567Z,2.05
2023-03-29T08:11:48.355Z,2.17
2023-03-29T08:14:51.050Z,2.37
2023-03-29T08:17:54.492Z,2.12
2023-03-29T08:20:58.110Z,2.20
2023-03-29T08:24:01.242Z,2.10
2023-03-29T08:27:04.562Z,2.50
2023-03-29T08:30:09.482Z,1.75
2023-03-29T08:33:13.274Z,1.55
2023-03-29T08:36:16.709Z,1.90
2023-03-29T08:39:19.799Z,1.95
2023-03-29T08:42:30.215Z,1.77
2023-03-29T08:46:03.250Z,1.70
2023-03-29T08:49:09.638Z,2.20
2023-03-29T08:52:36.944Z,2.12
2023-03-29T08:55:43.236Z,2.10
2023-03-29T08:58:51.439Z,2.53
2023-03-29T09:01:57.551Z,2.17
2023-03-29T09:05:20.992Z,2.37
2023-03-29T09:08:25.430Z,2.50
2023-03-29T09:11:56.633Z,2.50
2023-03-29T09:15:14.249Z,2.47
2023-03-29T09:18:36.307Z,2.75
2023-03-29T09:21:50.669Z,2.20
2023-03-29T09:25:01.669Z,2.67
2023-03-29T09:28:39.294Z,2.50
2023-03-29T09:31:44.556Z,2.90
2023-03-29T09:35:18.204Z,2.35
2023-03-29T09:38:22.988Z,2.70
2023-03-29T09:41:41.239Z,2.30
2023-03-29T09:44:52.596Z,2.55
2023-03-29T09:48:17.567Z,2.40
2023-03-29T09:51:26.322Z,2.47
2023-03-29T09:57:35.673Z,2.30
2023-03-29T10:00:39.959Z,2.53
2023-03-29T10:03:52.317Z,2.35
2023-03-29T10:06:55.376Z,2.10
2023-03-29T10:09:58.401Z,2.45
2023-03-29T10:13:06.021Z,1.90
2023-03-29T10:16:18.294Z,1.90
2023-03-29T10:19:36.937Z,2.08
2023-03-29T10:22:48.309Z,2.30
2023-03-29T10:25:51.817Z,2.00
2023-03-29T10:28:57.273Z,2.20
2023-03-29T10:32:00.065Z,2.40
2023-03-29T10:35:33.785Z,2.28
2023-03-29T10:38:38.101Z,2.10
2023-03-29T10:41:41.318Z,2.40
2023-03-29T10:44:54.001Z,2.03
2023-03-29T10:47:59.102Z,2.40
2023-03-29T10:51:05.690Z,2.10
2023-03-29T10:54:13.713Z,2.15
2023-03-29T10:57:27.780Z,2.60
2023-03-29T11:00:49.200Z,2.58
2023-03-29T11:03:57.797Z,2.15
2023-03-29T11:07:06.637Z,2.28
2023-03-29T11:10:21.540Z,2.80
2023-03-29T11:13:46.945Z,2.60
2023-03-29T11:17:24.545Z,2.20
2023-03-29T11:20:47.759Z,2.35
2023-03-29T11:24:38.468Z,2.20
2023-03-29T11:28:04.486Z,2.62
2023-03-29T11:31:22.994Z,2.30
2023-03-29T11:34:29.614Z,2.70
2023-03-29T11:37:44.568Z,2.58
2023-03-29T11:40:57.180Z,2.70
2023-03-29T11:44:17.631Z,2.87
2023-03-29T11:47:23.127Z,2.37
2023-03-29T11:50:39.469Z,2.28
2023-03-29T11:53:56.200Z,2.28
2023-03-29T11:57:14.705Z,2.87
2023-03-29T12:00:38.837Z,2.10
2023-03-29T12:03:47.988Z,2.20
2023-03-29T12:07:17.872Z,2.00
2023-03-29T12:10:27.321Z,2.10
2023-03-29T12:13:42.736Z,1.83
2023-03-29T12:16:54.623Z,1.90
2023-03-29T12:20:07.181Z,2.17
2023-03-29T12:23:15.180Z,1.85
2023-03-29T12:26:43.086Z,2.12
2023-03-29T12:30:14.521Z,1.80
2023-03-29T12:33:51.539Z,1.80
2023-03-29T12:37:22.023Z,1.92
2023-03-29T12:40:28.435Z,1.45
2023-03-29T12:43:43.584Z,2.35
2023-03-29T12:46:54.692Z,2.10
2023-03-29T12:49:59.746Z,1.75
2023-03-29T12:53:22.187Z,1.87
2023-03-29T12:56:56.208Z,1.80
2023-03-29T13:00:19.035Z,2.10
2023-03-29T13:03:30.010Z,1.52
2023-03-29T13:06:35.329Z,1.83
2023-03-29T13:09:51.847Z,2.10
2023-03-29T13:12:54.737Z,2.00
2023-03-29T13:33:10.246Z,2.50
2023-03-29T13:36:29.347Z,2.28
2023-03-29T13:39:36.949Z,2.60
2023-03-29T13:42:41.859Z,2.55
2023-03-29T13:45:44.996Z,2.87
2023-03-29T13:49:16.963Z,2.70
2023-03-29T13:52:43.363Z,2.72
2023-03-29T13:55:52.175Z,2.70
2023-03-29T13:59:05.647Z,2.80
2023-03-29T14:02:19.898Z,2.45
2023-03-29T14:05:32.241Z,2.67
2023-03-29T14:08:39.889Z,2.25
2023-03-29T14:28:29.885Z,2.70
2023-03-29T14:31:35.980Z,2.35
2023-03-29T14:34:40.177Z,2.40
2023-03-29T14:37:44.024Z,2.50
2023-03-29T14:40:46.739Z,2.70
2023-03-29T14:43:51.133Z,2.65
2023-03-29T14:51:01.146Z,2.72
2023-03-29T14:54:05.714Z,2.62
2023-03-29T14:57:15.323Z,2.78
2023-03-29T15:00:26.886Z,2.97
2023-03-29T15:03:44.305Z,2.80
2023-03-29T15:11:54.990Z,3.05
2023-03-29T15:14:59.545Z,2.83
2023-03-29T15:18:06.916Z,3.28
2023-03-29T15:21:18.225Z,3.08
2023-03-29T15:24:23.354Z,3.28
2023-03-29T15:27:26.454Z,3.33
2023-03-29T15:30:39.134Z,2.90
2023-03-29T15:41:52.843Z,3.40
2023-03-29T15:44:56.407Z,3.00
2023-03-29T15:48:02.015Z,3.05
2023-03-29T15:51:06.802Z,2.42
2023-03-29T15:54:09.837Z,2.92
2023-03-29T15:57:15.633Z,2.65
